Terminal Aerodrome Forecast
Issued by NWS Goodland, KS

Home | Current Version | Previous Version | Text Only | Print | Product List | Glossary On
Versions: 1 2 3 4 5 6 7 8 9 10 11 12 13 14
000
FTUS43 KGLD 221743
TAFGLD
TAF
KGLD 221743Z 2218/2318 18023G33KT P6SM SCT100 BKN200
     FM222000 18022G30KT P6SM VCSH BKN080
      TEMPO 2221/2301 -SHRA BKN040
     FM230600 17009KT P6SM SCT100
     FM231000 16009KT P6SM BKN010
     FM231600 30010KT P6SM FEW250=

USA.gov is the U.S. government's official web portal to all federal, state and local government web resources and services.